Time;durP1;ratioP1;P1;durP2;ratioP2;P2;SDS_P1;SDS_P2;PMS_P1;PMS_P2;Temp;Humidity;BMP_temperature;BMP_pressure;BME280_temperature;BME280_humidity;BME280_pressure;Samples;Min_cycle;Max_cycle;Signal;HPM_P1;HPM_P2
2023/05/04 00:02:25;;;;;;;0.20;0.20;;;6.90;94.40;;;;;;6184675;23;20376;-91
2023/05/04 00:04:52;;;;;;;0.20;0.20;;;6.90;94.50;;;;;;6182726;23;20040;-91
2023/05/04 00:07:39;;;;;;;0.20;0.20;;;6.60;94.40;;;;;;6185152;23;20401;-90
2023/05/04 00:10:08;;;;;;;0.20;0.20;;;6.90;94.60;;;;;;6186308;23;20426;-90
2023/05/04 00:12:58;;;;;;;0.20;0.20;;;6.90;94.60;;;;;;6187189;23;20059;-89
2023/05/04 00:15:24;;;;;;;0.20;0.20;;;6.90;94.70;;;;;;6186536;23;20303;-91
2023/05/04 00:17:53;;;;;;;0.20;0.20;;;7.40;95.00;;;;;;6183401;23;20083;-90
2023/05/04 00:20:20;;;;;;;0.20;0.20;;;7.00;94.90;;;;;;6184300;23;20028;-88
2023/05/04 00:22:52;;;;;;;0.20;0.20;;;6.90;94.90;;;;;;6185801;23;20064;-89
2023/05/04 00:25:32;;;;;;;;;;;6.80;94.90;;;;;;6202754;23;20020;-88
2023/05/04 00:28:01;;;;;;;0.20;0.20;;;6.80;94.90;;;;;;6183864;23;19974;-88
2023/05/04 00:30:28;;;;;;;0.20;0.20;;;6.90;95.10;;;;;;6180702;23;20048;-87
2023/05/04 00:32:53;;;;;;;0.20;0.20;;;6.80;95.10;;;;;;6181690;23;20016;-86
2023/05/04 00:35:31;;;;;;;0.20;0.20;;;7.10;95.20;;;;;;6193086;23;20024;-89
2023/05/04 00:38:09;;;;;;;0.20;0.20;;;7.40;95.40;;;;;;6198764;23;20045;-89
2023/05/04 00:40:37;;;;;;;0.20;0.20;;;6.80;95.20;;;;;;6184364;23;20020;-88
2023/05/04 00:43:03;;;;;;;0.20;0.20;;;6.70;95.30;;;;;;6183761;23;20350;-88
2023/05/04 00:45:29;;;;;;;0.20;0.20;;;6.80;95.30;;;;;;6182462;23;20013;-88
2023/05/04 00:47:55;;;;;;;0.20;0.20;;;7.10;95.40;;;;;;6182290;23;20017;-88
2023/05/04 00:50:21;;;;;;;0.20;0.20;;;7.10;95.50;;;;;;6181692;23;20450;-88
2023/05/04 00:52:51;;;;;;;0.20;0.20;;;6.70;95.50;;;;;;6185165;23;20013;-87
2023/05/04 00:55:20;;;;;;;0.20;0.20;;;6.70;95.60;;;;;;6185671;23;20088;-89
2023/05/04 00:58:25;;;;;;;0.20;0.20;;;6.70;95.60;;;;;;6186711;23;20016;-89
2023/05/04 01:00:54;;;;;;;0.20;0.20;;;7.00;95.70;;;;;;6093902;23;20025;-88
2023/05/04 01:03:27;;;;;;;0.20;0.20;;;6.60;95.80;;;;;;6103959;23;20093;-88
2023/05/04 01:06:31;;;;;;;0.20;0.20;;;6.60;95.70;;;;;;6183024;23;20020;-88
2023/05/04 01:09:36;;;;;;;0.20;0.20;;;6.40;95.70;;;;;;6087166;23;20066;-89
2023/05/04 01:12:37;;;;;;;0.20;0.20;;;6.60;95.80;;;;;;6186130;23;20024;-88
2023/05/04 01:15:04;;;;;;;0.20;0.20;;;6.60;95.80;;;;;;6181390;23;20299;-87
2023/05/04 01:17:29;;;;;;;0.17;0.17;;;6.60;95.90;;;;;;6184172;23;20043;-88
2023/05/04 01:19:55;;;;;;;0.20;0.20;;;6.60;96.00;;;;;;6183965;23;20017;-87
2023/05/04 01:22:46;;;;;;;0.20;0.20;;;6.70;96.00;;;;;;6188326;23;20552;-88
2023/05/04 01:25:26;;;;;;;0.20;0.20;;;6.50;96.10;;;;;;6188771;23;20028;-88
2023/05/04 01:28:07;;;;;;;0.20;0.20;;;6.50;96.10;;;;;;6216509;23;20017;-89
2023/05/04 01:30:38;;;;;;;;;;;6.50;96.20;;;;;;6188400;23;20031;-88
2023/05/04 01:33:05;;;;;;;0.20;0.20;;;6.50;96.20;;;;;;6215064;23;19991;-87
2023/05/04 01:35:30;;;;;;;0.17;0.17;;;6.50;96.30;;;;;;6202658;23;20020;-87
2023/05/04 01:37:57;;;;;;;0.20;0.20;;;6.50;96.30;;;;;;6216314;22;20001;-86
2023/05/04 01:40:23;;;;;;;0.20;0.20;;;6.50;96.40;;;;;;6199436;23;20024;-87
2023/05/04 01:42:48;;;;;;;0.20;0.20;;;6.50;96.40;;;;;;6187559;23;20019;-87
2023/05/04 01:45:14;;;;;;;0.20;0.20;;;6.50;96.50;;;;;;6187038;23;20017;-88
2023/05/04 01:47:40;;;;;;;0.20;0.20;;;6.50;96.60;;;;;;6213227;23;20044;-87
2023/05/04 01:50:06;;;;;;;0.20;0.20;;;6.50;96.60;;;;;;6200305;23;20051;-88
2023/05/04 01:52:32;;;;;;;0.20;0.20;;;6.40;96.70;;;;;;6223504;23;20020;-88
2023/05/04 01:54:58;;;;;;;0.20;0.20;;;6.50;96.70;;;;;;6187405;23;20027;-87
2023/05/04 01:57:23;;;;;;;0.20;0.20;;;6.40;96.80;;;;;;6214002;23;20013;-86
2023/05/04 01:59:49;;;;;;;0.20;0.20;;;6.40;96.80;;;;;;6214173;23;20024;-88
2023/05/04 02:02:15;;;;;;;0.20;0.20;;;6.10;97.80;;;;;;6189162;23;20017;-89
2023/05/04 02:04:40;;;;;;;0.20;0.20;;;6.40;97.00;;;;;;6216331;23;20020;-88
2023/05/04 02:07:07;;;;;;;0.20;0.20;;;6.70;97.10;;;;;;6188742;23;20020;-87
2023/05/04 02:09:34;;;;;;;0.20;0.20;;;6.40;97.10;;;;;;6193308;23;20020;-87
2023/05/04 02:11:59;;;;;;;0.20;0.20;;;6.40;97.10;;;;;;6210912;23;20012;-88
2023/05/04 02:14:25;;;;;;;0.20;0.20;;;6.40;97.10;;;;;;6190341;23;20450;-88
2023/05/04 02:16:51;;;;;;;0.20;0.20;;;6.40;97.20;;;;;;6188445;23;20088;-87
2023/05/04 02:19:17;;;;;;;0.20;0.20;;;6.40;97.20;;;;;;6185788;23;20091;-87
2023/05/04 02:21:42;;;;;;;0.20;0.20;;;6.40;97.30;;;;;;6212225;23;20051;-88
2023/05/04 02:24:08;;;;;;;0.20;0.20;;;6.40;97.30;;;;;;6186620;23;20020;-87
2023/05/04 02:26:35;;;;;;;0.20;0.20;;;6.40;97.40;;;;;;6213295;23;20429;-87
2023/05/04 02:29:02;;;;;;;0.20;0.20;;;6.40;97.40;;;;;;6186750;23;20479;-87
2023/05/04 02:31:28;;;;;;;0.20;0.20;;;6.40;97.40;;;;;;6211608;23;20230;-87
2023/05/04 02:33:53;;;;;;;0.20;0.20;;;6.40;97.50;;;;;;6197983;23;20012;-86
2023/05/04 02:36:19;;;;;;;0.20;0.20;;;6.40;97.60;;;;;;6189463;23;20023;-89
2023/05/04 02:38:45;;;;;;;0.20;0.20;;;6.40;97.60;;;;;;6188776;23;20396;-90
2023/05/04 02:41:11;;;;;;;0.20;0.20;;;6.40;97.70;;;;;;6190273;23;20017;-89
2023/05/04 02:43:36;;;;;;;0.20;0.20;;;6.40;97.70;;;;;;6190723;23;20019;-90
2023/05/04 02:46:02;;;;;;;0.10;0.10;;;6.30;97.70;;;;;;6217887;23;20516;-91
2023/05/04 02:48:28;;;;;;;0.10;0.10;;;6.30;97.80;;;;;;6219927;23;20020;-91
2023/05/04 02:50:55;;;;;;;0.20;0.20;;;6.30;97.80;;;;;;6192424;23;20044;-90
2023/05/04 02:53:21;;;;;;;0.20;0.20;;;6.30;97.90;;;;;;6194408;23;20016;-90
2023/05/04 02:55:49;;;;;;;0.17;0.17;;;6.30;97.90;;;;;;6191726;23;20013;-91
2023/05/04 02:58:15;;;;;;;0.20;0.20;;;6.30;98.00;;;;;;6191054;22;20020;-91
2023/05/04 03:01:08;;;;;;;0.20;0.20;;;7.00;98.20;;;;;;6221739;23;20449;-91
2023/05/04 03:03:42;;;;;;;0.20;0.20;;;6.30;98.10;;;;;;6190162;23;20031;-90
2023/05/04 03:06:14;;;;;;;0.20;0.20;;;6.30;98.20;;;;;;6189236;23;20027;-90
2023/05/04 03:08:59;;;;;;;0.20;0.20;;;6.80;98.30;;;;;;6189642;23;20067;-89
2023/05/04 03:11:25;;;;;;;0.20;0.20;;;6.50;98.30;;;;;;6190047;23;20020;-89
2023/05/04 03:13:54;;;;;;;0.20;0.20;;;6.30;98.30;;;;;;6230348;22;20024;-90
2023/05/04 03:16:26;;;;;;;0.20;0.20;;;6.30;98.30;;;;;;6231479;23;20060;-91
2023/05/04 03:19:10;;;;;;;0.20;0.20;;;6.20;98.30;;;;;;6227335;23;20004;-90
2023/05/04 03:21:36;;;;;;;0.20;0.20;;;6.30;98.50;;;;;;6246522;22;20015;-91
2023/05/04 03:24:21;;;;;;;0.20;0.20;;;6.20;98.50;;;;;;6266844;23;20043;-92
2023/05/04 03:26:53;;;;;;;0.20;0.20;;;6.30;98.50;;;;;;6248819;23;20051;-92
2023/05/04 03:32:06;;;;;;;0.20;0.20;;;6.30;98.60;;;;;;6223124;23;20027;-91
2023/05/04 03:35:18;;;;;;;0.20;0.20;;;7.00;99.10;;;;;;6251400;23;20020;-91
2023/05/04 03:38:01;;;;;;;0.20;0.20;;;5.90;98.60;;;;;;6224096;23;20051;-92
2023/05/04 03:41:13;;;;;;;0.20;0.20;;;6.20;98.80;;;;;;6254637;23;20114;-89
2023/05/04 03:52:25;;;;;;;0.20;0.20;;;5.50;98.80;;;;;;6262164;23;20015;-91
2023/05/04 03:54:51;;;;;;;0.20;0.20;;;5.50;98.90;;;;;;6228833;23;20045;-91
2023/05/04 03:57:21;;;;;;;0.20;0.20;;;6.30;99.20;;;;;;6225375;23;20027;-92
2023/05/04 03:59:47;;;;;;;0.20;0.20;;;6.30;99.20;;;;;;6239113;23;20068;-91
2023/05/04 04:02:50;;;;;;;0.20;0.20;;;6.30;99.30;;;;;;6223021;23;20023;-92
2023/05/04 04:05:21;;;;;;;0.20;0.20;;;5.30;99.00;;;;;;6247189;23;20046;-90
2023/05/04 04:08:16;;;;;;;0.20;0.20;;;6.40;99.50;;;;;;6220693;23;20451;-91
2023/05/04 04:10:57;;;;;;;0.20;0.20;;;6.30;99.40;;;;;;6220575;23;20072;-91
2023/05/04 04:13:27;;;;;;;0.20;0.20;;;6.30;99.50;;;;;;6217939;23;20095;-90
2023/05/04 04:15:53;;;;;;;0.13;0.13;;;6.30;99.50;;;;;;6188600;23;20025;-90
2023/05/04 04:21:26;;;;;;;0.20;0.20;;;7.00;99.90;;;;;;6222369;23;20491;-90
2023/05/04 04:24:13;;;;;;;0.20;0.20;;;5.80;99.70;;;;;;6192283;23;20021;-91
2023/05/04 04:26:47;;;;;;;0.20;0.20;;;6.30;99.80;;;;;;6190874;23;20016;-91
2023/05/04 04:29:34;;;;;;;0.20;0.20;;;6.60;99.90;;;;;;6190529;23;20735;-91
2023/05/04 04:32:21;;;;;;;0.20;0.20;;;6.30;99.90;;;;;;6188996;23;20013;-90
2023/05/04 04:40:52;;;;;;;0.20;0.20;;;6.20;99.90;;;;;;6108075;23;20032;-89
2023/05/04 04:43:33;;;;;;;0.20;0.20;;;7.20;99.90;;;;;;6150606;23;20029;-90
2023/05/04 04:46:17;;;;;;;0.20;0.20;;;6.40;99.90;;;;;;6144796;23;20018;-91
2023/05/04 04:49:07;;;;;;;0.20;0.20;;;6.40;99.90;;;;;;6156879;23;20296;-91
2023/05/04 04:51:52;;;;;;;0.20;0.20;;;6.50;99.90;;;;;;6130835;23;20095;-91
2023/05/04 04:54:40;;;;;;;0.20;0.20;;;6.50;99.90;;;;;;6180911;23;20016;-91
2023/05/04 04:57:31;;;;;;;0.20;0.20;;;6.50;99.90;;;;;;6249337;23;20449;-92
2023/05/04 04:59:58;;;;;;;0.20;0.20;;;6.90;99.90;;;;;;6250956;23;20436;-91
2023/05/04 05:02:44;;;;;;;0.20;0.20;;;6.50;99.90;;;;;;6252418;23;20481;-91
2023/05/04 05:05:15;;;;;;;;;;;6.60;99.90;;;;;;6272625;22;20027;-90
2023/05/04 05:07:41;;;;;;;0.20;0.20;;;6.60;99.90;;;;;;6247303;22;19916;-91
2023/05/04 05:10:13;;;;;;;0.20;0.20;;;6.70;99.90;;;;;;6223520;23;20013;-91
2023/05/04 05:12:39;;;;;;;0.20;0.20;;;6.70;99.90;;;;;;6249759;23;20048;-91
2023/05/04 05:15:20;;;;;;;0.20;0.20;;;7.00;99.90;;;;;;6222524;23;20023;-89
2023/05/04 05:17:56;;;;;;;0.20;0.20;;;6.80;99.90;;;;;;6248888;23;20019;-91
2023/05/04 05:21:14;;;;;;;0.10;0.10;;;7.10;99.90;;;;;;6222212;23;20040;-91
2023/05/04 05:23:46;;;;;;;0.20;0.20;;;6.90;99.90;;;;;;6214925;23;20012;-91
2023/05/04 05:26:12;;;;;;;0.20;0.20;;;6.40;99.90;;;;;;6238633;23;20023;-87
2023/05/04 05:29:04;;;;;;;0.20;0.20;;;7.20;99.90;;;;;;6253112;23;20016;-93
2023/05/04 05:31:31;;;;;;;0.20;0.20;;;6.30;99.90;;;;;;6220794;23;20047;-92
2023/05/04 05:34:37;;;;;;;0.20;0.20;;;7.40;99.90;;;;;;6245170;23;20055;-84
2023/05/04 05:41:16;;;;;;;0.20;0.20;;;6.30;99.90;;;;;;6217689;23;20020;-89
2023/05/04 05:43:42;;;;;;;0.20;0.20;;;7.60;99.90;;;;;;6223882;23;20061;-91
2023/05/04 05:46:07;;;;;;;0.20;0.20;;;7.20;99.90;;;;;;6217054;23;20021;-89
2023/05/04 05:48:36;;;;;;;0.20;0.20;;;7.60;99.90;;;;;;6215689;23;20020;-89
2023/05/04 05:51:17;;;;;;;0.20;0.20;;;7.40;99.90;;;;;;6215173;23;20012;-92
2023/05/04 05:53:49;;;;;;;0.20;0.20;;;7.50;99.90;;;;;;6216363;23;20024;-86
2023/05/04 05:56:18;;;;;;;0.10;0.10;;;7.40;99.90;;;;;;6214448;23;20012;-89
2023/05/04 05:58:43;;;;;;;0.20;0.20;;;7.50;99.90;;;;;;6210802;23;20016;-88
2023/05/04 06:01:34;;;;;;;0.20;0.20;;;7.20;99.90;;;;;;6214692;23;20078;-90
2023/05/04 06:04:32;;;;;;;0.10;0.10;;;7.50;99.90;;;;;;6214578;23;20021;-92
2023/05/04 06:07:07;;;;;;;0.20;0.20;;;7.40;99.90;;;;;;6218994;23;20052;-91
2023/05/04 06:12:38;;;;;;;0.20;0.20;;;7.80;99.90;;;;;;6213854;23;20536;-90
2023/05/04 06:15:33;;;;;;;0.20;0.20;;;8.50;99.90;;;;;;6212912;23;20022;-89
2023/05/04 06:18:23;;;;;;;0.20;0.20;;;7.90;99.90;;;;;;6214328;23;20017;-92
2023/05/04 06:21:07;;;;;;;0.20;0.20;;;8.00;99.90;;;;;;6216616;23;20021;-90
2023/05/04 06:23:55;;;;;;;0.10;0.10;;;8.10;99.90;;;;;;6212554;23;20031;-89
2023/05/04 06:26:48;;;;;;;0.17;0.17;;;8.10;99.90;;;;;;6212859;23;20024;-88
2023/05/04 06:29:13;;;;;;;0.20;0.20;;;8.00;99.90;;;;;;6214876;23;20020;-91
2023/05/04 06:31:55;;;;;;;0.20;0.20;;;8.30;99.90;;;;;;6219739;22;20019;-92
2023/05/04 06:34:29;;;;;;;;;;;8.60;99.90;;;;;;6276694;22;20027;-90
2023/05/04 06:37:12;;;;;;;0.20;0.20;;;8.50;99.90;;;;;;6251715;22;20319;-89
2023/05/04 06:39:41;;;;;;;0.20;0.20;;;9.30;99.90;;;;;;6277925;22;20020;-89
2023/05/04 06:42:31;;;;;;;0.20;0.20;;;8.30;99.90;;;;;;6276133;22;20012;-91
2023/05/04 06:44:57;;;;;;;0.20;0.20;;;7.80;99.90;;;;;;6248530;22;20015;-89
2023/05/04 06:47:29;;;;;;;0.10;0.10;;;8.80;99.90;;;;;;6256045;22;19995;-88
2023/05/04 06:50:02;;;;;;;0.20;0.20;;;8.90;99.90;;;;;;6275122;22;20044;-90
2023/05/04 06:58:32;;;;;;;0.13;0.13;;;9.10;99.90;;;;;;6253315;22;19915;-89
2023/05/04 07:01:08;;;;;;;0.20;0.20;;;8.80;99.90;;;;;;6268666;22;20049;-90
2023/05/04 07:03:34;;;;;;;0.20;0.20;;;9.20;99.90;;;;;;6250992;22;20016;-90
2023/05/04 07:05:59;;;;;;;0.20;0.20;;;9.30;99.90;;;;;;6280238;22;20079;-90
2023/05/04 07:08:44;;;;;;;0.20;0.20;;;9.40;99.90;;;;;;6251504;22;20097;-90
2023/05/04 07:11:12;;;;;;;0.20;0.20;;;9.40;99.90;;;;;;6274565;22;20111;-88
2023/05/04 07:13:58;;;;;;;0.20;0.20;;;9.50;99.90;;;;;;6222343;22;20019;-88
2023/05/04 07:16:31;;;;;;;0.13;0.13;;;9.50;99.90;;;;;;6247006;22;20011;-87
2023/05/04 07:19:24;;;;;;;0.20;0.20;;;8.40;99.90;;;;;;6233656;22;20440;-88
2023/05/04 07:22:05;;;;;;;0.10;0.10;;;9.60;99.90;;;;;;6274967;22;20489;-89
2023/05/04 07:25:04;;;;;;;0.20;0.20;;;10.20;99.90;;;;;;6274410;22;20558;-89
2023/05/04 07:27:43;;;;;;;0.20;0.20;;;9.80;99.90;;;;;;6122555;23;20073;-91
2023/05/04 07:30:25;;;;;;;0.20;0.20;;;10.20;99.90;;;;;;6091152;23;20021;-91
2023/05/04 07:37:04;;;;;;;0.17;0.17;;;9.40;99.60;;;;;;6093839;23;20025;-93
2023/05/04 07:42:18;;;;;;;0.10;0.10;;;10.20;99.60;;;;;;6243070;22;20082;-93
2023/05/04 07:45:09;;;;;;;0.20;0.20;;;10.50;99.60;;;;;;6222302;23;20020;-92
2023/05/04 07:47:57;;;;;;;0.20;0.20;;;10.40;99.50;;;;;;6229180;23;20024;-93
2023/05/04 07:50:25;;;;;;;0.20;0.20;;;10.00;99.30;;;;;;6252552;23;20016;-92
2023/05/04 07:52:51;;;;;;;0.15;0.15;;;10.50;99.50;;;;;;6248943;23;20020;-92
2023/05/04 07:55:18;;;;;;;0.20;0.20;;;11.00;99.50;;;;;;6249162;23;20016;-92
2023/05/04 08:01:15;;;;;;;0.10;0.10;;;10.70;99.30;;;;;;6222428;23;20027;-93
2023/05/04 08:07:32;;;;;;;0.20;0.20;;;10.10;98.90;;;;;;6244915;23;20062;-91
2023/05/04 08:10:16;;;;;;;0.20;0.20;;;11.00;99.30;;;;;;6245796;23;20346;-88
2023/05/04 08:13:28;;;;;;;0.10;0.10;;;10.80;99.10;;;;;;6218519;23;20099;-93
2023/05/04 08:19:47;;;;;;;0.20;0.20;;;11.10;99.00;;;;;;6250832;23;20073;-91
2023/05/04 08:22:35;;;;;;;0.10;0.10;;;11.20;99.10;;;;;;6220422;23;20016;-90
2023/05/04 08:25:42;;;;;;;0.20;0.20;;;11.30;99.20;;;;;;6215286;23;20058;-92
2023/05/04 08:28:38;;;;;;;0.10;0.10;;;11.20;99.10;;;;;;6189411;23;20023;-92
2023/05/04 08:31:39;;;;;;;0.20;0.20;;;11.60;99.30;;;;;;6232849;23;20027;-91
2023/05/04 08:34:05;;;;;;;0.20;0.20;;;11.70;98.90;;;;;;6244019;22;20030;-92
2023/05/04 08:36:57;;;;;;;0.10;0.10;;;11.70;99.30;;;;;;6268344;22;20004;-93
2023/05/04 08:42:53;;;;;;;0.20;0.20;;;12.00;99.30;;;;;;6244165;23;20015;-90
2023/05/04 09:06:58;;;;;;;0.20;0.20;;;12.60;98.10;;;;;;6276600;22;20447;-92
2023/05/04 09:10:07;;;;;;;0.10;0.10;;;12.60;98.10;;;;;;6254735;22;20023;-92
2023/05/04 09:12:49;;;;;;;0.20;0.20;;;12.80;98.10;;;;;;6252639;22;20015;-93
2023/05/04 09:15:27;;;;;;;0.20;0.20;;;12.90;98.10;;;;;;6279011;22;20020;-92
2023/05/04 09:18:11;;;;;;;0.20;0.20;;;13.00;98.10;;;;;;6283934;22;20091;-92
2023/05/04 09:21:05;;;;;;;0.20;0.20;;;13.00;98.00;;;;;;6281895;22;20024;-94
2023/05/04 09:27:38;;;;;;;0.10;0.10;;;12.40;97.70;;;;;;6276904;22;20046;-91
2023/05/04 09:30:31;;;;;;;0.20;0.20;;;13.10;97.60;;;;;;6277637;22;20082;-91
2023/05/04 09:32:57;;;;;;;0.20;0.20;;;13.20;97.50;;;;;;6259045;22;20022;-92
2023/05/04 09:38:50;;;;;;;0.20;0.20;;;13.90;97.50;;;;;;6255482;22;20037;-92
2023/05/04 09:45:09;;;;;;;0.20;0.20;;;13.90;97.10;;;;;;6279712;22;20020;-92
2023/05/04 10:03:05;;;;;;;0.20;0.20;;;14.20;96.40;;;;;;6249340;23;20559;-92
2023/05/04 10:14:04;;;;;;;0.20;0.20;;;14.10;96.10;;;;;;6210654;23;20063;-92
2023/05/04 10:17:21;;;;;;;0.20;0.20;;;14.90;95.90;;;;;;6184975;23;20020;-91
2023/05/04 10:20:32;;;;;;;0.20;0.20;;;15.00;95.60;;;;;;6160261;23;20442;-91
2023/05/04 10:23:23;;;;;;;0.17;0.17;;;15.40;95.80;;;;;;6159446;23;20328;-92
2023/05/04 10:29:37;;;;;;;0.20;0.20;;;15.20;95.50;;;;;;6185770;23;20025;-90
2023/05/04 10:32:22;;;;;;;0.20;0.20;;;14.70;95.20;;;;;;6195378;23;20017;-94
2023/05/04 10:34:51;;;;;;;0.20;0.20;;;15.60;95.30;;;;;;6163033;23;20017;-93
2023/05/04 10:37:19;;;;;;;0.20;0.20;;;15.60;95.20;;;;;;6183548;23;20017;-93
2023/05/04 10:40:04;;;;;;;0.20;0.20;;;15.70;95.30;;;;;;6183619;23;20419;-90
2023/05/04 10:42:55;;;;;;;0.20;0.20;;;15.80;95.40;;;;;;6182903;23;20024;-92
2023/05/04 10:48:14;;;;;;;0.20;0.20;;;16.10;95.00;;;;;;6245706;23;20024;-95
2023/05/04 10:50:58;;;;;;;0.20;0.20;;;16.20;94.90;;;;;;6220522;23;20024;-92
2023/05/04 10:53:42;;;;;;;0.20;0.20;;;16.10;94.70;;;;;;6247253;23;20020;-93
2023/05/04 10:57:02;;;;;;;0.20;0.20;;;16.30;94.80;;;;;;6204658;23;20024;-94
2023/05/04 11:00:29;;;;;;;0.20;0.20;;;16.60;94.50;;;;;;6192894;23;20024;-91
2023/05/04 11:03:39;;;;;;;0.20;0.20;;;16.70;94.40;;;;;;6213250;23;20023;-91
2023/05/04 11:13:37;;;;;;;0.17;0.17;;;17.20;94.10;;;;;;6160955;23;20043;-94
2023/05/04 11:17:06;;;;;;;0.10;0.10;;;17.40;93.90;;;;;;6170915;23;20012;-94
2023/05/04 11:22:40;;;;;;;0.20;0.20;;;17.90;92.80;;;;;;6214904;22;20235;-92
2023/05/04 11:28:58;;;;;;;0.20;0.20;;;18.10;92.70;;;;;;6126075;23;20077;-91
2023/05/04 11:31:57;;;;;;;0.30;0.30;;;18.30;92.80;;;;;;6101383;23;20022;-95
2023/05/04 11:53:40;;;;;;;0.20;0.20;;;19.20;91.10;;;;;;6248541;23;20019;-92
2023/05/04 11:56:11;;;;;;;0.20;0.20;;;19.40;91.00;;;;;;6270228;22;20059;-92
2023/05/04 11:59:03;;;;;;;0.20;0.20;;;19.60;91.00;;;;;;6268265;22;20076;-93
2023/05/04 12:02:02;;;;;;;0.20;0.20;;;19.70;90.80;;;;;;6219726;23;20070;-90
2023/05/04 12:08:24;;;;;;;0.20;0.20;;;19.90;90.40;;;;;;6223794;22;20022;-94
2023/05/04 12:17:48;;;;;;;0.20;0.20;;;20.20;89.90;;;;;;6255602;22;20027;-92
2023/05/04 12:27:32;;;;;;;0.20;0.20;;;20.60;89.00;;;;;;6216949;22;20028;-92
2023/05/04 12:30:26;;;;;;;0.30;0.30;;;20.80;88.10;;;;;;6192566;23;20460;-95
2023/05/04 12:33:07;;;;;;;0.20;0.20;;;20.90;87.30;;;;;;6192244;23;20063;-94
2023/05/04 12:35:42;;;;;;;0.20;0.20;;;21.00;87.10;;;;;;6149262;23;20020;-94
2023/05/04 12:38:24;;;;;;;0.20;0.20;;;21.10;87.10;;;;;;6224786;23;20016;-95
2023/05/04 12:41:17;;;;;;;0.20;0.20;;;21.20;86.60;;;;;;6259794;22;20448;-93
2023/05/04 12:44:23;;;;;;;0.20;0.20;;;21.40;86.20;;;;;;6214355;22;20018;-93
2023/05/04 12:46:56;;;;;;;0.20;0.20;;;21.50;85.80;;;;;;6246686;22;20059;-94
2023/05/04 12:50:40;;;;;;;0.20;0.20;;;21.60;85.40;;;;;;6255025;23;20066;-96
2023/05/04 13:19:30;;;;;;;0.20;0.20;;;22.70;81.50;;;;;;6262193;23;20051;-94
2023/05/04 13:22:57;;;;;;;0.20;0.20;;;22.60;80.40;;;;;;6261631;22;20051;-93
2023/05/04 13:26:33;;;;;;;;;;;;;;;;;;;;;
2023/05/04 13:32:40;;;;;;;0.20;0.20;;;22.90;79.50;;;;;;6273744;22;20031;-94
2023/05/04 13:35:22;;;;;;;0.20;0.20;;;23.00;79.20;;;;;;6173687;23;20013;-92
2023/05/04 13:37:53;;;;;;;0.20;0.20;;;23.00;79.40;;;;;;6258641;22;20024;-93
2023/05/04 14:03:32;;;;;;;0.20;0.20;;;23.40;77.60;;;;;;6192497;23;20065;-93
2023/05/04 14:05:59;;;;;;;0.20;0.20;;;23.40;77.60;;;;;;6163468;23;20017;-93
2023/05/04 14:12:19;;;;;;;0.20;0.20;;;23.70;76.40;;;;;;6188989;23;20088;-94
2023/05/04 14:18:11;;;;;;;0.20;0.20;;;23.80;77.60;;;;;;6109408;23;20111;-93
2023/05/04 14:21:01;;;;;;;0.20;0.20;;;24.00;76.30;;;;;;6100237;23;20097;-93
2023/05/04 14:29:20;;;;;;;0.20;0.20;;;24.00;74.10;;;;;;6244044;22;20024;-93
2023/05/04 14:31:46;;;;;;;0.20;0.20;;;;;;;;;;6244121;23;20344;-94
2023/05/04 15:07:30;;;;;;;0.20;0.20;;;24.00;75.30;;;;;;6286799;22;20027;-91
2023/05/04 15:11:02;;;;;;;0.20;0.20;;;24.70;74.40;;;;;;6282957;22;20094;-91
2023/05/04 15:13:56;;;;;;;0.20;0.20;;;24.90;73.40;;;;;;6217667;23;20142;-91
2023/05/04 15:17:18;;;;;;;0.20;0.20;;;24.70;70.50;;;;;;6223589;22;20042;-94
2023/05/04 15:20:51;;;;;;;0.20;0.20;;;24.60;71.10;;;;;;6301225;22;20030;-93
2023/05/04 15:31:21;;;;;;;0.20;0.20;;;24.40;70.90;;;;;;6246314;22;20020;-91
2023/05/04 15:37:46;;;;;;;0.20;0.20;;;25.50;72.90;;;;;;6275605;22;20011;-91
2023/05/04 15:40:30;;;;;;;0.20;0.20;;;27.10;74.60;;;;;;6208486;22;20018;-91
2023/05/04 15:42:59;;;;;;;0.20;0.20;;;28.70;74.90;;;;;;6248138;22;20013;-75
2023/05/04 15:45:40;;;;;;;0.20;0.20;;;30.20;73.80;;;;;;6262595;22;20027;-75
2023/05/04 15:48:10;;;;;;;0.20;0.20;;;;;;;;;;6273347;22;20069;-75
2023/05/04 15:50:39;;;;;;;0.20;0.20;;;;;;;;;;6272783;22;20012;-75
2023/05/04 15:53:20;;;;;;;0.20;0.20;;;;;;;;;;6243300;22;20407;-75
2023/05/04 15:55:47;;;;;;;0.20;0.20;;;;;;;;;;6271673;22;20016;-75
2023/05/04 15:58:37;;;;;;;0.20;0.20;;;;;;;;;;6272362;22;20081;-75
2023/05/04 16:01:06;;;;;;;;;;;;;;;;;;6269877;22;20030;-75
2023/05/04 16:03:42;;;;;;;0.20;0.20;;;;;;;;;;6272342;22;19915;-74
2023/05/04 16:06:14;;;;;;;0.20;0.20;;;29.70;93.30;;;;;;6239853;22;20537;-74
2023/05/04 16:09:15;;;;;;;0.20;0.20;;;29.30;59.40;;;;;;6214478;23;20127;-74
2023/05/04 16:12:01;;;;;;;0.20;0.20;;;28.50;59.30;;;;;;6214941;23;20016;-74
2023/05/04 16:14:54;;;;;;;0.20;0.20;;;27.10;59.10;;;;;;6210935;23;20019;-74
2023/05/04 16:17:35;;;;;;;0.20;0.20;;;26.40;59.60;;;;;;6215159;23;20016;-74
2023/05/04 16:20:02;;;;;;;0.20;0.20;;;;;;;;;;6238995;23;20539;-74
2023/05/04 16:22:31;;;;;;;0.20;0.20;;;;;;;;;;6218081;23;20019;-73
2023/05/04 16:25:07;;;;;;;0.20;0.20;;;;;;;;;;6243327;23;20039;-74
2023/05/04 16:27:36;;;;;;;0.20;0.20;;;;;;;;;;6236198;23;20012;-74
2023/05/04 16:30:09;;;;;;;0.20;0.20;;;;;;;;;;6213797;23;20028;-74
2023/05/04 16:32:41;;;;;;;0.30;0.30;;;;;;;;;;6214966;23;20016;-74
2023/05/04 16:35:16;;;;;;;0.20;0.20;;;;;;;;;;6241988;23;20074;-74
2023/05/04 16:37:52;;;;;;;0.20;0.20;;;;;;;;;;6215955;23;20344;-74
2023/05/04 16:40:18;;;;;;;0.20;0.20;;;;;;;;;;6216133;23;20016;-75
2023/05/04 16:43:19;;;;;;;0.20;0.20;;;;;;;;;;6242501;23;20016;-74
2023/05/04 16:46:02;;;;;;;0.20;0.20;;;;;;;;;;6242245;23;20020;-75
2023/05/04 16:48:32;;;;;;;0.20;0.20;;;;;;;;;;6242609;23;20123;-75
2023/05/04 16:50:58;;;;;;;0.20;0.20;;;;;;;;;;6216995;23;20449;-72
2023/05/04 16:53:24;;;;;;;0.20;0.20;;;;;;;;;;6244173;23;20020;-73
2023/05/04 16:55:52;;;;;;;0.20;0.20;;;;;;;;;;6216584;23;20343;-75
2023/05/04 16:58:18;;;;;;;0.20;0.20;;;;;;;;;;6223834;23;20512;-74
2023/05/04 17:00:44;;;;;;;0.20;0.20;;;;;;;;;;6218210;23;20053;-75
2023/05/04 17:03:13;;;;;;;0.20;0.20;;;;;;;;;;6216081;23;20016;-74
2023/05/04 17:05:39;;;;;;;0.30;0.30;;;;;;;;;;6215241;23;20065;-74
2023/05/04 17:08:06;;;;;;;0.17;0.17;;;;;;;;;;6217032;23;20016;-75
2023/05/04 17:10:32;;;;;;;0.20;0.20;;;;;;;;;;6215248;23;20567;-75
2023/05/04 17:12:58;;;;;;;0.20;0.20;;;;;;;;;;6215898;23;20099;-75
2023/05/04 17:15:29;;;;;;;0.20;0.20;;;;;;;;;;6213879;23;20087;-74
2023/05/04 17:17:55;;;;;;;0.20;0.20;;;;;;;;;;6242995;23;20062;-74
2023/05/04 17:20:23;;;;;;;0.20;0.20;;;;;;;;;;6215578;23;20020;-75
2023/05/04 17:23:01;;;;;;;0.20;0.20;;;;;;;;;;6202325;23;20025;-74
2023/05/04 17:25:27;;;;;;;0.20;0.20;;;;;;;;;;6210822;23;20024;-74
2023/05/04 17:27:54;;;;;;;0.20;0.20;;;;;;;;;;6211028;23;20415;-73
2023/05/04 17:30:39;;;;;;;0.20;0.20;;;;;;;;;;6206985;23;20421;-74
2023/05/04 17:33:14;;;;;;;0.20;0.20;;;;;;;;;;6211460;23;20079;-75
2023/05/04 17:35:52;;;;;;;0.10;0.10;;;;;;;;;;6211962;23;20351;-74
2023/05/04 17:38:19;;;;;;;0.20;0.20;;;;;;;;;;6211927;23;20025;-74
2023/05/04 17:40:45;;;;;;;0.20;0.20;;;;;;;;;;6212836;23;20135;-74
2023/05/04 17:43:20;;;;;;;0.20;0.20;;;;;;;;;;6210036;23;20039;-74
2023/05/04 17:46:02;;;;;;;0.20;0.20;;;;;;;;;;6207709;23;20021;-73
2023/05/04 17:48:36;;;;;;;0.20;0.20;;;;;;;;;;6212741;23;20472;-74
2023/05/04 17:51:02;;;;;;;0.10;0.10;;;;;;;;;;6210311;23;20341;-74
2023/05/04 17:53:31;;;;;;;0.20;0.20;;;;;;;;;;6209525;23;20035;-74
2023/05/04 17:59:00;;;;;;;0.20;0.20;;;;;;;;;;6065188;23;20074;-74
2023/05/04 18:01:27;;;;;;;0.20;0.20;;;;;;;;;;6137054;22;20039;-74
2023/05/04 18:03:53;;;;;;;0.20;0.20;;;;;;;;;;6210939;23;20020;-74
2023/05/04 18:06:19;;;;;;;0.20;0.20;;;;;;;;;;6209530;23;20016;-74
2023/05/04 18:08:48;;;;;;;0.20;0.20;;;;;;;;;;6211202;23;20023;-74
2023/05/04 18:11:14;;;;;;;0.20;0.20;;;;;;;;;;6210432;23;20449;-74
2023/05/04 18:13:40;;;;;;;0.20;0.20;;;;;;;;;;6209174;23;20021;-74
2023/05/04 18:16:07;;;;;;;0.20;0.20;;;;;;;;;;6209141;23;20029;-74
2023/05/04 18:18:33;;;;;;;0.20;0.20;;;;;;;;;;6210520;23;20012;-74
2023/05/04 18:20:59;;;;;;;0.17;0.17;;;;;;;;;;6211703;23;20027;-74
2023/05/04 18:23:25;;;;;;;0.20;0.20;;;;;;;;;;6211460;23;20020;-74
2023/05/04 18:25:52;;;;;;;0.15;0.15;;;;;;;;;;6210826;23;20028;-74
2023/05/04 18:28:18;;;;;;;0.20;0.20;;;;;;;;;;6211004;23;20088;-74
2023/05/04 18:30:44;;;;;;;0.20;0.20;;;;;;;;;;6210522;23;20020;-74
2023/05/04 18:33:10;;;;;;;0.20;0.20;;;;;;;;;;6210060;23;20012;-74
2023/05/04 18:35:36;;;;;;;0.20;0.20;;;;;;;;;;6209399;23;20021;-75
2023/05/04 18:38:02;;;;;;;0.20;0.20;;;;;;;;;;6217693;23;20037;-74
2023/05/04 18:40:28;;;;;;;0.20;0.20;;;;;;;;;;6213972;23;20079;-75
2023/05/04 18:42:54;;;;;;;0.20;0.20;;;;;;;;;;6208600;23;20050;-74
2023/05/04 18:45:20;;;;;;;0.20;0.20;;;;;;;;;;6208189;23;20013;-75
2023/05/04 18:47:46;;;;;;;0.15;0.15;;;;;;;;;;6209178;23;20016;-74
2023/05/04 18:50:12;;;;;;;0.20;0.20;;;;;;;;;;6210499;23;20123;-74
2023/05/04 18:52:38;;;;;;;0.20;0.20;;;;;;;;;;6210245;23;20016;-74
2023/05/04 18:55:04;;;;;;;0.15;0.15;;;;;;;;;;6211262;23;20084;-74